CheckWX is a tool to help pilots better visualize weather data.  It is not intended as a substitute for an official pre-flight weather briefing.

19:45:48 UTC

FNHU TAF
Nova Lisboa Airport
Huambo, Angola
TAF FNHU 201045Z 2012/2024 09015KT CAVOK BECMG 2019/2022 VRB03KT 8000 NSC

Jun-20@
12:00 UTC

Jun-20 @ 12:00 UTC

Jun-20@
19:00 UTC

Jun-20 @ 19:00 UTC

TAF FNHU 201045Z 2012/2024 09015KT CAVOK

Expired

Wind
  • 090° at 15 KTS
Conditions
No significant weather
Cloud Levels
  • No significant clouds

Jun-20@
19:00 UTC

Jun-20 @ 19:00 UTC

Jun-21@
00:00 UTC

Jun-21 @ 00:00 UTC

BECMG 2019/2022 VRB03KT 8000 NSC

Becoming

Becoming Conditions expected by Thu, Jun 20, 2019 @ 22:00 UTC

Wind
  • Variable at 3 KTS
Conditions
No significant weather
Cloud Levels
  • No significant clouds